createdAt,value
2019-04-13T00:00:47.767Z,8.07
2019-04-13T00:03:17.134Z,7.10
2019-04-13T00:05:55.368Z,7.90
2019-04-13T00:08:26.742Z,8.93
2019-04-13T00:11:02.066Z,6.80
2019-04-13T00:13:30.894Z,8.23
2019-04-13T00:15:59.995Z,8.33
2019-04-13T00:18:28.915Z,7.90
2019-04-13T00:20:57.747Z,7.60
2019-04-13T00:23:26.662Z,7.30
2019-04-13T00:25:55.506Z,7.57
2019-04-13T00:28:24.476Z,7.87
2019-04-13T00:30:53.313Z,7.43
2019-04-13T00:33:22.186Z,8.40
2019-04-13T00:35:50.990Z,7.77
2019-04-13T00:38:20.054Z,7.27
2019-04-13T00:40:48.975Z,8.20
2019-04-13T00:43:17.907Z,7.57
2019-04-13T00:45:46.732Z,7.13
2019-04-13T00:48:15.584Z,8.83
2019-04-13T00:50:44.454Z,7.23
2019-04-13T00:53:13.433Z,9.23
2019-04-13T00:55:42.416Z,8.63
2019-04-13T00:58:11.235Z,8.57
2019-04-13T01:00:40.500Z,7.67
2019-04-13T01:03:09.325Z,8.30
2019-04-13T01:05:38.195Z,9.57
2019-04-13T01:08:07.369Z,8.00
2019-04-13T01:10:36.198Z,8.67
2019-04-13T01:13:05.166Z,8.23
2019-04-13T01:15:34.022Z,8.07
2019-04-13T01:18:02.859Z,8.23
2019-04-13T01:20:31.679Z,9.53
2019-04-13T01:23:01.307Z,8.87
2019-04-13T01:25:30.132Z,8.57
2019-04-13T01:27:59.001Z,8.33
2019-04-13T01:30:27.893Z,8.33
2019-04-13T01:32:56.739Z,9.30
2019-04-13T01:35:25.632Z,8.57
2019-04-13T01:37:54.529Z,9.70
2019-04-13T01:40:23.373Z,8.50
2019-04-13T01:42:52.467Z,8.80
2019-04-13T01:45:21.446Z,8.50
2019-04-13T01:47:50.247Z,8.70
2019-04-13T01:50:19.247Z,9.80
2019-04-13T01:52:48.100Z,9.10
2019-04-13T01:55:17.070Z,10.10
2019-04-13T01:57:45.901Z,10.50
2019-04-13T02:00:17.264Z,10.13
2019-04-13T02:02:48.824Z,9.50
2019-04-13T02:05:39.829Z,10.40
2019-04-13T02:08:37.015Z,9.60
2019-04-13T02:11:15.081Z,9.20
2019-04-13T02:13:43.998Z,10.40
2019-04-13T02:16:12.890Z,10.73
2019-04-13T02:18:41.877Z,10.07
2019-04-13T02:21:10.814Z,9.00
2019-04-13T02:23:39.752Z,9.80
2019-04-13T02:26:08.630Z,9.73
2019-04-13T02:28:37.534Z,9.87
2019-04-13T02:31:06.530Z,9.23
2019-04-13T02:33:35.467Z,9.87
2019-04-13T02:36:04.453Z,8.93
2019-04-13T02:38:33.253Z,9.77
2019-04-13T02:41:02.160Z,8.53
2019-04-13T02:43:31.002Z,10.53
2019-04-13T02:45:59.914Z,9.60
2019-04-13T02:48:28.762Z,9.20
2019-04-13T02:50:57.621Z,9.30
2019-04-13T02:53:26.410Z,8.90
2019-04-13T02:55:55.274Z,8.60
2019-04-13T02:58:24.166Z,9.40
2019-04-13T03:00:53.130Z,9.13
2019-04-13T03:03:22.062Z,10.10
2019-04-13T03:05:51.042Z,9.03
2019-04-13T03:08:19.951Z,10.47
2019-04-13T03:10:48.865Z,10.63
2019-04-13T03:13:18.150Z,9.70
2019-04-13T03:16:09.330Z,10.10
2019-04-13T03:18:57.238Z,9.20
2019-04-13T03:21:26.162Z,9.80
2019-04-13T03:23:55.061Z,9.20
2019-04-13T03:26:24.182Z,9.27
2019-04-13T03:28:53.164Z,8.83
2019-04-13T03:31:22.156Z,9.40
2019-04-13T03:33:51.065Z,9.00
2019-04-13T03:36:19.907Z,8.37
2019-04-13T03:38:48.730Z,8.13
2019-04-13T03:41:17.630Z,9.60
2019-04-13T03:43:46.613Z,9.07
2019-04-13T03:46:15.418Z,9.20
2019-04-13T03:48:44.336Z,8.10
2019-04-13T03:51:13.185Z,9.40
2019-04-13T03:53:42.086Z,10.53
2019-04-13T03:56:10.986Z,9.73
2019-04-13T03:58:39.899Z,9.77
2019-04-13T04:01:08.713Z,8.90
2019-04-13T04:03:37.646Z,10.53
2019-04-13T04:06:11.851Z,8.97
2019-04-13T04:08:37.030Z,9.90
2019-04-13T04:11:06.014Z,9.40
2019-04-13T04:13:34.866Z,10.00
2019-04-13T04:16:03.822Z,9.60
2019-04-13T04:18:32.729Z,11.40
2019-04-13T04:21:02.019Z,9.57
2019-04-13T04:23:30.909Z,9.57
2019-04-13T04:25:59.935Z,9.90
2019-04-13T04:28:28.836Z,8.47
2019-04-13T04:30:57.729Z,10.90
2019-04-13T04:33:26.777Z,10.90
2019-04-13T04:35:55.796Z,10.57
2019-04-13T04:38:24.725Z,10.73
2019-04-13T04:40:53.738Z,10.40
2019-04-13T04:43:22.567Z,9.93
2019-04-13T04:45:51.573Z,9.80
2019-04-13T04:48:20.429Z,11.13
2019-04-13T04:50:49.348Z,11.77
2019-04-13T04:53:18.261Z,9.53
2019-04-13T04:55:47.326Z,10.47
2019-04-13T04:58:16.255Z,9.30
2019-04-13T05:00:45.153Z,10.30
2019-04-13T05:03:14.123Z,10.40
2019-04-13T05:05:42.977Z,10.73
2019-04-13T05:08:14.619Z,10.27
2019-04-13T05:10:42.665Z,10.47
2019-04-13T05:13:11.524Z,10.60
2019-04-13T05:15:40.527Z,11.13
2019-04-13T05:18:09.518Z,10.00
2019-04-13T05:20:38.470Z,9.90
2019-04-13T05:23:07.635Z,11.30
2019-04-13T05:25:36.498Z,9.50
2019-04-13T05:28:05.434Z,10.70
2019-04-13T05:30:34.444Z,10.30
2019-04-13T05:33:03.570Z,9.63
2019-04-13T05:35:32.382Z,10.80
2019-04-13T05:38:01.211Z,10.77
2019-04-13T05:40:30.091Z,10.23
2019-04-13T05:42:59.018Z,9.60
2019-04-13T05:45:28.078Z,10.70
2019-04-13T05:47:56.947Z,9.00
2019-04-13T05:50:25.971Z,10.60
2019-04-13T05:52:54.876Z,10.03
2019-04-13T05:55:23.793Z,9.90
2019-04-13T05:57:52.634Z,9.17
2019-04-13T06:00:21.999Z,9.27
2019-04-13T06:02:50.942Z,9.00
2019-04-13T06:05:19.805Z,9.27
2019-04-13T06:07:48.727Z,9.20
2019-04-13T06:10:17.811Z,8.23
2019-04-13T06:12:46.797Z,8.93
2019-04-13T06:15:15.911Z,9.67
2019-04-13T06:17:44.794Z,9.10
2019-04-13T06:20:15.355Z,8.80
2019-04-13T06:22:46.918Z,8.60
2019-04-13T06:25:15.147Z,8.50
2019-04-13T06:27:44.050Z,8.07
2019-04-13T06:30:32.561Z,10.00
2019-04-13T06:33:17.667Z,8.67
2019-04-13T06:35:46.638Z,9.30
2019-04-13T06:38:15.802Z,9.17
2019-04-13T06:40:44.906Z,8.30
2019-04-13T06:43:13.809Z,8.40
2019-04-13T06:45:42.745Z,8.60
2019-04-13T06:48:11.827Z,8.83
2019-04-13T06:50:40.694Z,8.13
2019-04-13T06:53:09.695Z,8.20
2019-04-13T06:55:38.741Z,8.93
2019-04-13T06:58:07.826Z,9.20
2019-04-13T07:00:36.875Z,8.27
2019-04-13T07:03:06.013Z,7.80
2019-04-13T07:05:35.144Z,8.27
2019-04-13T07:08:37.806Z,8.47
2019-04-13T07:11:17.740Z,8.10
2019-04-13T07:13:55.839Z,9.27
2019-04-13T07:16:28.319Z,9.00
2019-04-13T07:18:57.366Z,9.27
2019-04-13T07:21:26.351Z,9.10
2019-04-13T07:24:14.383Z,8.87
2019-04-13T07:26:43.240Z,8.20
2019-04-13T07:29:12.232Z,7.70
2019-04-13T07:31:41.358Z,8.23
2019-04-13T07:34:11.805Z,8.87
2019-04-13T07:36:42.222Z,8.70
2019-04-13T07:39:11.249Z,8.63
2019-04-13T07:41:40.171Z,7.93
2019-04-13T07:44:11.162Z,8.37
2019-04-13T07:46:56.077Z,7.90
2019-04-13T07:49:54.670Z,8.33
2019-04-13T07:52:28.775Z,8.13
2019-04-13T07:54:57.534Z,7.47
2019-04-13T07:57:26.555Z,6.70
2019-04-13T07:59:55.706Z,8.87
2019-04-13T08:02:24.795Z,8.20
2019-04-13T08:04:53.811Z,7.70
2019-04-13T08:07:22.846Z,7.27
2019-04-13T08:09:51.902Z,7.87
2019-04-13T08:12:21.007Z,7.37
2019-04-13T08:14:50.006Z,9.07
2019-04-13T08:17:25.825Z,7.83
2019-04-13T08:20:09.405Z,7.80
2019-04-13T08:22:38.572Z,7.27
2019-04-13T08:25:07.533Z,8.13
2019-04-13T08:27:36.410Z,7.63
2019-04-13T08:30:05.957Z,7.27
2019-04-13T08:32:35.850Z,8.27
2019-04-13T08:35:05.113Z,8.20
2019-04-13T08:37:37.796Z,7.90
2019-04-13T08:40:05.288Z,8.00
2019-04-13T08:42:34.287Z,6.73
2019-04-13T08:45:03.233Z,7.10
2019-04-13T08:47:32.254Z,6.30
2019-04-13T08:50:01.103Z,5.97
2019-04-13T08:52:30.001Z,6.67
2019-04-13T08:54:58.938Z,6.47
2019-04-13T08:57:28.104Z,6.40
2019-04-13T08:59:57.020Z,5.30
2019-04-13T09:02:25.893Z,6.50
2019-04-13T09:04:54.789Z,5.80
2019-04-13T09:07:23.720Z,5.93
2019-04-13T09:09:52.964Z,5.03
2019-04-13T09:12:22.533Z,6.10
2019-04-13T09:14:53.925Z,6.17
2019-04-13T09:17:22.782Z,5.63
2019-04-13T09:20:05.879Z,4.90
2019-04-13T09:22:35.645Z,5.30
2019-04-13T09:25:05.099Z,5.20
2019-04-13T09:27:35.389Z,4.67
2019-04-13T09:30:05.347Z,4.90
2019-04-13T09:32:34.207Z,5.97
2019-04-13T09:35:03.119Z,5.67
2019-04-13T09:37:32.941Z,4.73
2019-04-13T09:40:02.561Z,5.00
2019-04-13T09:42:31.478Z,5.90
2019-04-13T09:45:03.428Z,5.73
2019-04-13T09:47:30.983Z,5.97
2019-04-13T09:50:00.233Z,5.10
2019-04-13T09:52:32.172Z,5.27
2019-04-13T09:55:05.850Z,5.63
2019-04-13T09:57:34.815Z,5.20
2019-04-13T10:00:05.578Z,5.20
2019-04-13T10:02:34.945Z,8.43
2019-04-13T10:05:04.145Z,8.60
2019-04-13T10:07:33.074Z,5.53
2019-04-13T10:10:02.057Z,5.37
2019-04-13T10:12:39.459Z,5.07
2019-04-13T10:15:26.806Z,4.60
2019-04-13T10:17:59.817Z,4.90
2019-04-13T10:20:28.770Z,5.10
2019-04-13T10:22:57.697Z,4.70
2019-04-13T10:25:27.257Z,4.87
2019-04-13T10:27:56.142Z,4.20
2019-04-13T10:30:25.586Z,4.77
2019-04-13T10:32:54.837Z,5.10
2019-04-13T10:35:23.977Z,5.03
2019-04-13T10:37:54.693Z,4.77
2019-04-13T10:40:24.956Z,5.00
2019-04-13T10:42:54.397Z,5.10
2019-04-13T10:45:45.100Z,4.77
2019-04-13T10:48:33.572Z,4.77
2019-04-13T10:51:12.499Z,4.37
2019-04-13T10:53:41.348Z,5.47
2019-04-13T10:56:10.307Z,4.67
2019-04-13T10:58:39.359Z,4.27
2019-04-13T11:01:08.373Z,5.20
2019-04-13T11:03:37.188Z,4.60
2019-04-13T11:06:08.480Z,3.83
2019-04-13T11:08:37.455Z,4.33
2019-04-13T11:11:06.375Z,4.90
2019-04-13T11:13:35.262Z,4.23
2019-04-13T11:16:04.334Z,5.37
2019-04-13T11:18:36.773Z,5.53
2019-04-13T11:21:04.012Z,4.47
2019-04-13T11:23:36.372Z,4.40
2019-04-13T11:26:04.033Z,4.40
2019-04-13T11:28:33.202Z,4.80
2019-04-13T11:31:02.421Z,3.60
2019-04-13T11:33:31.486Z,4.40
2019-04-13T11:36:00.429Z,3.77
2019-04-13T11:38:29.309Z,4.50
2019-04-13T11:41:05.447Z,4.40
2019-04-13T11:44:08.872Z,4.13
2019-04-13T11:46:45.954Z,4.27
2019-04-13T11:49:19.512Z,4.90
2019-04-13T11:51:48.004Z,4.30
2019-04-13T11:54:16.878Z,4.23
2019-04-13T11:56:45.708Z,4.40
2019-04-13T11:59:14.663Z,4.37
2019-04-13T12:01:51.182Z,4.40
2019-04-13T12:05:00.341Z,5.10
2019-04-13T12:08:05.566Z,4.03
2019-04-13T12:10:52.522Z,4.20
2019-04-13T12:13:38.058Z,4.23
2019-04-13T12:16:32.618Z,3.93
2019-04-13T12:19:06.872Z,4.50
2019-04-13T12:21:57.937Z,3.77
2019-04-13T12:24:29.243Z,3.47
2019-04-13T12:26:58.211Z,3.90
2019-04-13T12:29:46.162Z,3.53
2019-04-13T12:32:23.795Z,3.80
2019-04-13T12:34:49.558Z,4.47
2019-04-13T12:37:18.497Z,4.00
2019-04-13T12:40:01.881Z,4.00
2019-04-13T12:42:19.912Z,4.20
2019-04-13T12:44:50.367Z,4.00
2019-04-13T12:47:21.082Z,4.30
2019-04-13T12:49:49.905Z,3.70
2019-04-13T12:52:18.761Z,4.00
2019-04-13T12:54:47.734Z,4.60
2019-04-13T12:57:16.595Z,4.60
2019-04-13T12:59:45.544Z,3.60
2019-04-13T13:02:34.576Z,4.07
2019-04-13T13:05:10.026Z,3.63
2019-04-13T13:07:38.963Z,4.13
2019-04-13T13:10:15.035Z,4.37
2019-04-13T13:12:38.865Z,3.80
2019-04-13T13:15:10.751Z,3.93
2019-04-13T13:17:40.264Z,3.53
2019-04-13T13:20:09.395Z,3.00
2019-04-13T13:22:38.338Z,3.43
2019-04-13T13:25:07.380Z,3.30
2019-04-13T13:27:36.347Z,3.13
2019-04-13T13:30:06.777Z,3.20
2019-04-13T13:32:35.721Z,3.60
2019-04-13T13:35:05.181Z,3.03
2019-04-13T13:37:34.030Z,2.80
2019-04-13T13:40:03.237Z,2.87
2019-04-13T13:42:32.312Z,3.20
2019-04-13T13:45:01.138Z,2.90
2019-04-13T13:47:30.142Z,2.80
2019-04-13T13:49:59.105Z,2.90
2019-04-13T13:52:28.027Z,2.80
2019-04-13T13:54:56.894Z,2.83
2019-04-13T13:57:25.966Z,2.70
2019-04-13T13:59:54.898Z,3.40
2019-04-13T14:02:32.874Z,3.30
2019-04-13T14:05:01.954Z,3.40
2019-04-13T14:07:32.816Z,3.10
2019-04-13T14:10:13.161Z,2.60
2019-04-13T14:12:42.638Z,2.50
2019-04-13T14:15:12.734Z,2.70
2019-04-13T14:17:41.989Z,3.20
2019-04-13T14:20:11.183Z,3.20
2019-04-13T14:22:40.142Z,2.80
2019-04-13T14:25:10.381Z,2.80
2019-04-13T14:27:39.242Z,3.30
2019-04-13T14:30:09.097Z,3.40
2019-04-13T14:32:38.262Z,3.30
2019-04-13T14:35:07.478Z,2.80
2019-04-13T14:37:36.502Z,3.33
2019-04-13T14:40:06.702Z,2.97
2019-04-13T14:42:35.771Z,3.37
2019-04-13T14:45:05.809Z,3.43
2019-04-13T14:47:35.788Z,3.20
2019-04-13T14:50:07.965Z,3.10
2019-04-13T14:52:37.306Z,3.10
2019-04-13T14:55:07.191Z,3.00
2019-04-13T14:57:38.668Z,2.90
2019-04-13T15:00:08.377Z,3.80
2019-04-13T15:02:37.555Z,4.27
2019-04-13T15:05:08.233Z,4.93
2019-04-13T15:07:37.235Z,3.43
2019-04-13T15:10:07.259Z,2.60
2019-04-13T15:12:36.939Z,3.10
2019-04-13T15:15:07.671Z,3.27
2019-04-13T15:17:50.075Z,3.80
2019-04-13T15:20:23.425Z,2.90
2019-04-13T15:22:55.866Z,3.10
2019-04-13T15:25:20.871Z,3.07
2019-04-13T15:27:53.909Z,2.60
2019-04-13T15:30:22.510Z,3.13
2019-04-13T15:32:54.762Z,2.90
2019-04-13T15:35:24.243Z,3.37
2019-04-13T15:37:54.098Z,2.90
2019-04-13T15:40:24.117Z,2.97
2019-04-13T15:43:00.110Z,2.50
2019-04-13T15:45:26.342Z,3.77
2019-04-13T15:47:57.350Z,3.20
2019-04-13T15:50:26.724Z,3.60
2019-04-13T15:52:55.928Z,2.93
2019-04-13T15:55:25.240Z,3.27
2019-04-13T15:57:55.535Z,3.00
2019-04-13T16:00:25.277Z,4.37
2019-04-13T16:02:54.334Z,3.60
2019-04-13T16:05:24.182Z,2.70
2019-04-13T16:07:53.433Z,3.57
2019-04-13T16:10:44.574Z,3.33
2019-04-13T16:13:17.350Z,3.50
2019-04-13T16:15:47.484Z,2.80
2019-04-13T16:18:17.511Z,3.63
2019-04-13T16:20:46.600Z,3.00
2019-04-13T16:23:15.593Z,2.97
2019-04-13T16:25:44.577Z,3.20
2019-04-13T16:28:24.464Z,3.40
2019-04-13T16:31:09.469Z,2.23
2019-04-13T16:33:52.571Z,2.77
2019-04-13T16:36:29.058Z,3.87
2019-04-13T16:39:04.756Z,3.47
2019-04-13T16:41:29.536Z,3.70
2019-04-13T16:44:04.098Z,2.97
2019-04-13T16:46:41.810Z,4.33
2019-04-13T16:49:33.818Z,3.57
2019-04-13T16:52:17.956Z,3.30
2019-04-13T16:55:00.258Z,3.50
2019-04-13T16:57:35.734Z,4.23
2019-04-13T17:00:15.084Z,2.80
2019-04-13T17:03:09.640Z,3.23
2019-04-13T17:05:39.754Z,2.93
2019-04-13T17:08:09.715Z,3.00
2019-04-13T17:10:39.906Z,3.07
2019-04-13T17:13:09.678Z,2.83
2019-04-13T17:15:39.763Z,2.60
2019-04-13T17:18:17.369Z,3.27
2019-04-13T17:21:08.445Z,3.17
2019-04-13T17:24:15.109Z,3.30
2019-04-13T17:27:05.650Z,2.83
2019-04-13T17:29:39.097Z,3.47
2019-04-13T17:32:22.729Z,3.00
2019-04-13T17:34:55.301Z,3.00
2019-04-13T17:37:25.456Z,4.70
2019-04-13T17:39:54.833Z,2.60
2019-04-13T17:42:43.499Z,3.10
2019-04-13T17:45:31.870Z,2.90
2019-04-13T17:48:38.221Z,3.10
2019-04-13T17:51:25.193Z,2.80
2019-04-13T17:54:01.884Z,2.40
2019-04-13T17:56:31.966Z,3.10
2019-04-13T17:59:26.133Z,2.70
2019-04-13T18:02:13.330Z,2.97
2019-04-13T18:05:04.502Z,3.23
2019-04-13T18:07:56.975Z,4.80
2019-04-13T18:10:38.174Z,3.30
2019-04-13T18:13:44.501Z,3.23
2019-04-13T18:16:23.533Z,3.33
2019-04-13T18:18:56.617Z,4.10
2019-04-13T18:21:26.348Z,3.93
2019-04-13T18:23:55.519Z,4.57
2019-04-13T18:26:24.956Z,4.70
2019-04-13T18:28:54.386Z,3.77
2019-04-13T18:31:23.494Z,3.57
2019-04-13T18:33:53.351Z,3.53
2019-04-13T18:36:23.547Z,3.60
2019-04-13T18:38:53.890Z,4.43
2019-04-13T18:41:22.939Z,4.23
2019-04-13T18:43:52.057Z,4.20
2019-04-13T18:46:21.871Z,4.23
2019-04-13T18:48:51.059Z,4.30
2019-04-13T18:51:21.251Z,3.53
2019-04-13T18:53:50.713Z,3.90
2019-04-13T18:56:21.022Z,4.20
2019-04-13T18:58:50.152Z,4.53
2019-04-13T19:01:21.903Z,3.77
2019-04-13T19:03:50.060Z,3.90
2019-04-13T19:06:27.054Z,4.10
2019-04-13T19:08:49.642Z,4.37
2019-04-13T19:11:18.531Z,4.70
2019-04-13T19:13:47.483Z,4.67
2019-04-13T19:16:16.672Z,4.70
2019-04-13T19:18:46.563Z,4.50
2019-04-13T19:21:15.834Z,4.20
2019-04-13T19:23:44.965Z,4.20
2019-04-13T19:26:13.806Z,4.90
2019-04-13T19:28:43.126Z,5.43
2019-04-13T19:31:12.040Z,4.90
2019-04-13T19:33:41.066Z,5.20
2019-04-13T19:36:09.881Z,5.20
2019-04-13T19:38:38.766Z,5.07
2019-04-13T19:41:07.666Z,4.63
2019-04-13T19:43:36.550Z,4.90
2019-04-13T19:46:05.538Z,4.87
2019-04-13T19:48:34.432Z,5.13
2019-04-13T19:51:03.278Z,4.73
2019-04-13T19:53:48.954Z,5.13
2019-04-13T19:56:20.050Z,4.70
2019-04-13T19:58:48.874Z,4.87
2019-04-13T20:01:29.691Z,5.00
2019-04-13T20:03:59.038Z,4.17
2019-04-13T20:06:27.935Z,5.27
2019-04-13T20:08:56.860Z,5.13
2019-04-13T20:11:25.784Z,5.07
2019-04-13T20:14:01.355Z,4.53
2019-04-13T20:16:25.587Z,6.17
2019-04-13T20:18:54.498Z,5.20
2019-04-13T20:21:23.340Z,5.50
2019-04-13T20:23:52.287Z,6.43
2019-04-13T20:26:21.207Z,6.03
2019-04-13T20:28:50.475Z,5.87
2019-04-13T20:31:20.391Z,5.57
2019-04-13T20:33:50.355Z,5.77
2019-04-13T20:36:22.377Z,5.60
2019-04-13T20:38:50.119Z,5.90
2019-04-13T20:41:21.743Z,5.93
2019-04-13T20:43:57.559Z,6.20
2019-04-13T20:46:21.471Z,6.43
2019-04-13T20:48:51.137Z,5.83
2019-04-13T20:51:21.288Z,6.10
2019-04-13T20:53:50.409Z,5.43
2019-04-13T20:56:19.300Z,6.83
2019-04-13T20:58:48.963Z,5.23
2019-04-13T21:01:19.079Z,5.63
2019-04-13T21:03:49.125Z,5.57
2019-04-13T21:06:18.242Z,6.20
2019-04-13T21:08:51.239Z,6.40
2019-04-13T21:11:19.216Z,7.17
2019-04-13T21:14:01.175Z,5.37
2019-04-13T21:16:19.262Z,5.97
2019-04-13T21:18:49.317Z,5.80
2019-04-13T21:21:19.258Z,6.07
2019-04-13T21:23:49.448Z,7.17
2019-04-13T21:26:20.994Z,6.10
2019-04-13T21:28:49.292Z,5.87
2019-04-13T21:31:19.516Z,5.80
2019-04-13T21:33:49.573Z,6.33
2019-04-13T21:36:19.446Z,6.13
2019-04-13T21:38:49.561Z,6.90
2019-04-13T21:41:19.510Z,8.53
2019-04-13T21:43:49.720Z,6.80
2019-04-13T21:46:19.529Z,7.00
2019-04-13T21:48:50.225Z,7.60
2019-04-13T21:51:51.049Z,7.80
2019-04-13T21:54:25.606Z,6.97
2019-04-13T21:56:55.822Z,8.50
2019-04-13T21:59:25.978Z,7.30
2019-04-13T22:02:09.243Z,7.57
2019-04-13T22:04:39.049Z,8.77
2019-04-13T22:07:09.154Z,7.17
2019-04-13T22:09:39.157Z,8.10
2019-04-13T22:12:09.054Z,8.03
2019-04-13T22:14:46.337Z,8.27
2019-04-13T22:17:09.583Z,8.33
2019-04-13T22:19:39.744Z,7.90
2019-04-13T22:22:09.752Z,8.50
2019-04-13T22:24:39.870Z,7.50
2019-04-13T22:27:10.954Z,10.03
2019-04-13T22:29:57.158Z,8.47
2019-04-13T22:32:41.018Z,9.67
2019-04-13T22:35:34.643Z,10.73
2019-04-13T22:38:04.503Z,9.17
2019-04-13T22:40:34.248Z,8.70
2019-04-13T22:43:04.669Z,8.00
2019-04-13T22:45:34.038Z,9.57
2019-04-13T22:48:22.404Z,9.40
2019-04-13T22:51:20.519Z,8.27
2019-04-13T22:54:07.869Z,7.97
2019-04-13T22:56:44.457Z,8.40
2019-04-13T22:59:13.971Z,8.53
2019-04-13T23:01:48.513Z,8.43
2019-04-13T23:04:17.421Z,8.60
2019-04-13T23:06:46.790Z,8.27
2019-04-13T23:09:17.028Z,9.10
2019-04-13T23:11:47.383Z,9.47
2019-04-13T23:14:17.808Z,8.47
2019-04-13T23:16:47.696Z,9.50
2019-04-13T23:19:17.558Z,8.17
2019-04-13T23:21:46.742Z,9.80
2019-04-13T23:24:15.562Z,10.13
2019-04-13T23:26:45.157Z,8.00
2019-04-13T23:29:14.983Z,8.33
2019-04-13T23:31:44.021Z,9.30
2019-04-13T23:34:13.639Z,8.80
2019-04-13T23:36:42.821Z,10.17
2019-04-13T23:39:12.615Z,9.10
2019-04-13T23:41:42.901Z,9.23
2019-04-13T23:44:11.886Z,9.00
2019-04-13T23:46:41.777Z,9.17
2019-04-13T23:49:10.819Z,9.67
2019-04-13T23:51:40.301Z,9.40
2019-04-13T23:54:10.651Z,9.70
2019-04-13T23:56:49.953Z,9.63
2019-04-13T23:59:26.546Z,8.70
